PENO2: Grand Lake O' The Cherokees, Pensacola Dm

Data processed at Sat Dec 09 2017 23:31


All information presented herein is the property of the government of the United States of America and may be revised or deleted at any time without prior notice.
Dissemination of this information without the expressed written consent of the Public Affairs Office, Tulsa District U.S. Army Corps of Engineers is strictly prohibited.
These data are gathered electronically and, as presented, have not undergone any form of quality control. These data are not guaranteed to be valid or correct.
Go to home page.
Go to station list.

Upstream stations:

Downstream station:
Previous Day
Next Day
Current Day
    
SHEF ID:       PENO2     Lake O' the Cherokees at Langley
STATION TYPE:  RESERVOIR

               PRECIP ELEVATION   STORAGE    INFLOW   RELEASE  AIR-TEMP  WIND-DIRWIND-SPEED REL-HUMID SOLAR-RAD   VOLTAGE  BAT-LOAD
                   in        ft     ac-ft       cfs       cfs         F       deg       mph         %      W/m2      volt      volt
              Ccp-Rev   Ccp-Rev   Ccp-Rev  Regi-Rev  Regi-Rev   Ccp-Rev   Ccp-Rev   Ccp-Rev   Ccp-Rev   Ccp-Rev   Ccp-Rev   Ccp-Rev
(US/Central)
12/07 00:00      0.00    742.05   1394715       142         0     41.56    322.09     12.03     51.99      0.00     12.74     12.49
12/07 01:00      0.00    742.06   1395118       104         0     38.95    326.63     12.03     62.34      0.00     12.72     12.41
12/07 02:00      0.00    742.10   1396730        66         0     36.81    328.34     14.73     70.64      0.00     12.70     12.41
12/07 03:00      0.00    742.09   1396327        28         0     33.91    335.18     14.79     67.95      0.00     12.68     12.41
12/07 04:00      0.00    742.06   1395118         0         0     31.95    337.25     13.74     63.75      0.00     12.65     12.41
12/07 05:00      0.00    742.04   1394312         0       109     30.09    322.74     10.48     66.79      0.00     12.64     12.41
12/07 06:00      0.00    742.03   1393909         0       653     27.54    313.67     12.61     69.47      0.00     12.61     12.33
12/07 07:00      0.00    742.04   1394312         0      1303     26.15    313.26     11.15     73.77      0.00     12.57     12.33
12/07 08:00      0.00    742.02   1393506         8         0     24.66    306.65      8.83     76.39     14.74     12.57     12.33
12/07 09:00      0.00    742.03   1393909         8         0     24.67    312.29     10.36     74.46    177.81     12.56     12.33
12/07 10:00      0.00    742.05   1394715         8         0     26.08    324.03     13.61     74.59    266.19     12.55     12.25
12/07 11:00      0.00    742.04   1394312         8       326     27.23    329.58     12.17     65.60    450.66     12.54     12.25
12/07 12:00      0.00    742.04   1394312         8       109     28.96    334.23      9.45     56.89    525.27     12.53     12.25
12/07 13:00      0.00    742.02   1393506         0         0     30.94    327.20      9.42     50.43    534.59     12.54     12.25
12/07 14:00      0.00    742.02   1393506         0         0     32.63    328.19     10.57     47.04    482.82     12.54     12.25
12/07 15:00      0.00    742.03   1393909         1         0     34.05    323.80      9.95     43.00    374.66     12.55     12.25
12/07 16:00      0.00    742.02   1393506         1         0     35.17    326.51     11.02     44.81    224.53     12.55     12.25
12/07 17:00      0.00    742.03   1393909         1       109     34.97    319.40     10.61     43.92     57.77     12.55     12.25
12/07 18:00      0.00    742.02   1393506         1      2185     33.89    308.60      7.55     46.07      0.00     13.48     13.21
12/07 19:00      0.00    742.01   1393103         0      2186     32.04    291.73      5.92     46.69      0.00     13.51     13.21
12/07 20:00      0.00    742.01   1393103         0      2186     31.60    296.85      5.93     47.20      0.00     13.53     13.13
12/07 21:00      0.00    742.00   1392700         3      2186     33.26    344.05      5.76     46.87      0.00     12.99     13.05
12/07 22:00      0.00    741.98   1391908         6      2186     28.22    169.15      1.46     54.69      0.00     12.89     12.65
12/07 23:00      0.00    741.98   1391908         9      1195     27.21    155.58      1.08     62.13      0.00     12.84     12.57